Lantana, FL (33462)

4:36 AM EST on February 06, 2016 (GMT -0500)
Island Estates | | Change Station
CLOSE
Current Station
Personal Weather Station
Location: Lantana, FL
Elevation: 45 ft
Nearby Weather Stations

Elev 45 ft 26.57 °N, 80.08 °W | Updated 42 seconds ago

Overcast
Overcast
70.2 °F
Feels Like 72 °F
N
4.0
Wind Variable Wind from NE
Gusts 6.0 mph

Today
High -- | Low -- °F
--% Chance of Precip.
Yesterday
High -- | Low -- °F
Precip. -- in
Pressure 30.10 in
Visibility 10.0 miles
Clouds Few 3400 ft
Overcast 6000 ft
Heat Index 72 °F
Dew Point 62 °F
Humidity 76%
Rainfall 0.02 in
Snow Depth Not available.
7:02 AM 6:06 PM
Waning Crescent, 6% visible
METAR KPBI 060853Z 09009KT 10SM FEW034 OVC060 21/14 A3010 RMK AO2 SLP192 T02110139 56018 $
Pressure 30.10 in
Visibility 10.0 miles
Clouds Few 3400 ft
Overcast 6000 ft
Heat Index 72 °F
Dew Point 62 °F
Humidity 76%
Rainfall 0.02 in
Snow Depth Not available.
7:02 AM 6:06 PM
Waning Crescent, 6% visible
METAR KPBI 060853Z 09009KT 10SM FEW034 OVC060 21/14 A3010 RMK AO2 SLP192 T02110139 56018 $

10-Day Weather Forecast

Almanac

Astronomy

Feb. 06, 2016 Rise Set
Actual Time
Civil Twilight
Nautical Twilight
Astronomical Twilight
Moon
Length of Visible Light
Length of Day
Tomorrow will be .
, % of the Moon is Illuminated

Today's Extremes

State Highs State Lows

Community

WunderPhotos

Upload Photos

1,890,933 photos uploaded!

WunderBlog® & News

Nearby

Air Quality

  Air Quality AQ Index Pollutant
Not available.

Snow Depth

Station Depth Elevation

Earthquake Activity

City Distance Mag. Time & Date
Minimum magnitude displayed is 2.5.

Coastal Water Temperatures

Place Temperature

Stations

Nearby Weather Stations

Station Location Temp. Windchill Dew Point Humidity Wind Precip. Elev Updated Type
                   

Watches & Warnings

There are currently no watches in effect.